Time;durP1;ratioP1;P1;durP2;ratioP2;P2;SDS_P1;SDS_P2;PMS_P1;PMS_P2;Temp;Humidity;BMP_temperature;BMP_pressure;BME280_temperature;BME280_humidity;BME280_pressure;Samples;Min_cycle;Max_cycle;Signal;HPM_P1;HPM_P2
2022/11/11 00:00:33;;;;;;;3.10;1.67;;;;;;;;;;5048612;28;20421;-38
2022/11/11 00:02:59;;;;;;;9.57;2.20;;;;;;;;;;5049728;28;20021;-38
2022/11/11 00:05:25;;;;;;;4.78;1.50;;;;;;;;;;5045500;28;20025;-38
2022/11/11 00:08:01;;;;;;;2.83;1.35;;;;;;;;;;5049208;28;20017;-38
2022/11/11 00:10:27;;;;;;;3.33;1.83;;;;;;;;;;5043057;28;20029;-38
2022/11/11 00:12:53;;;;;;;1.85;1.20;;;;;;;;;;5049694;28;20443;-38
2022/11/11 00:15:19;;;;;;;3.35;1.67;;;;;;;;;;5048745;28;20397;-38
2022/11/11 00:26:07;;;;;;;3.42;2.08;;;;;;;;;;5047351;28;20071;-38
2022/11/11 00:28:33;;;;;;;2.58;1.30;;;;;;;;;;5049452;28;20028;-38
2022/11/11 00:31:07;;;;;;;2.47;1.38;;;;;;;;;;5049523;28;20025;-38
2022/11/11 00:33:33;;;;;;;3.30;1.60;;;;;;;;;;5049500;28;20025;-38
2022/11/11 00:35:59;;;;;;;2.47;1.05;;;;;;;;;;5050007;28;20367;-37
2022/11/11 00:41:10;;;;;;;2.20;1.30;;;;;;;;;;5052988;28;20036;-38
2022/11/11 00:43:36;;;;;;;3.63;1.95;;;;;;;;;;5053366;28;20021;-38
2022/11/11 00:51:31;;;;;;;3.17;1.60;;;;;;;;;;5051931;28;20095;-38
2022/11/11 00:53:57;;;;;;;2.58;1.52;;;;;;;;;;5054099;28;20458;-38
2022/11/11 00:56:24;;;;;;;3.20;1.30;;;;;;;;;;5052601;28;20036;-43
2022/11/11 00:58:50;;;;;;;3.67;1.60;;;;;;;;;;5053402;28;20485;-38
2022/11/11 01:01:16;;;;;;;1.95;1.23;;;;;;;;;;5052993;28;20033;-38
2022/11/11 01:03:42;;;;;;;2.25;1.38;;;;;;;;;;5052927;28;20032;-38
2022/11/11 01:06:09;;;;;;;2.38;1.45;;;;;;;;;;5052951;28;20037;-38
2022/11/11 01:08:35;;;;;;;2.15;1.45;;;;;;;;;;5052689;28;20474;-38
2022/11/11 01:11:01;;;;;;;1.42;1.13;;;;;;;;;;5053069;28;20025;-38
2022/11/11 01:13:28;;;;;;;2.72;1.50;;;;;;;;;;5053399;28;20470;-38
2022/11/11 01:16:14;;;;;;;2.10;1.67;;;;;;;;;;5053358;28;20083;-37
2022/11/11 01:18:40;;;;;;;3.53;2.00;;;;;;;;;;5042661;28;20571;-38
2022/11/11 01:21:16;;;;;;;3.28;1.20;;;;;;;;;;5052534;28;20029;-38
2022/11/11 01:23:42;;;;;;;2.00;1.15;;;;;;;;;;5047160;28;20065;-38
2022/11/11 01:26:16;;;;;;;2.55;1.40;;;;;;;;;;5052607;28;20044;-38
2022/11/11 01:28:42;;;;;;;2.25;1.48;;;;;;;;;;5052551;28;20056;-38
2022/11/11 01:31:10;;;;;;;2.63;1.40;;;;;;;;;;5053001;28;20074;-38
2022/11/11 01:33:36;;;;;;;1.13;1.00;;;;;;;;;;5053142;28;20025;-38
2022/11/11 01:36:06;;;;;;;2.25;1.30;;;;;;;;;;5052769;28;20036;-38
2022/11/11 01:38:32;;;;;;;2.55;1.65;;;;;;;;;;5052039;28;20375;-38
2022/11/11 01:40:58;;;;;;;2.25;1.35;;;;;;;;;;5047735;28;20100;-39
2022/11/11 01:43:24;;;;;;;2.45;1.60;;;;;;;;;;5052386;28;20104;-43
2022/11/11 01:45:56;;;;;;;2.80;1.42;;;;;;;;;;5052702;28;20047;-38
2022/11/11 01:51:12;;;;;;;2.42;1.35;;;;;;;;;;5053350;28;20001;-39
2022/11/11 01:53:38;;;;;;;3.30;1.70;;;;;;;;;;5052053;28;20021;-38
2022/11/11 01:56:04;;;;;;;2.00;1.30;;;;;;;;;;5042119;28;20075;-38
2022/11/11 01:58:30;;;;;;;2.42;1.30;;;;;;;;;;5050177;28;20504;-38
2022/11/11 02:00:57;;;;;;;2.60;1.50;;;;;;;;;;5052569;28;20100;-38
2022/11/11 02:03:24;;;;;;;2.65;1.45;;;;;;;;;;5052088;28;20433;-43
2022/11/11 02:05:54;;;;;;;3.10;1.30;;;;;;;;;;5051609;28;20061;-38
2022/11/11 02:08:32;;;;;;;1.88;1.42;;;;;;;;;;5052546;28;20033;-38
2022/11/11 02:11:12;;;;;;;1.67;1.13;;;;;;;;;;5052136;28;20074;-38
2022/11/11 02:16:24;;;;;;;1.73;1.25;;;;;;;;;;5048847;28;20048;-42
2022/11/11 02:18:50;;;;;;;2.58;1.15;;;;;;;;;;5051423;28;20025;-37
2022/11/11 02:21:23;;;;;;;3.75;1.60;;;;;;;;;;5051264;28;20139;-39
2022/11/11 02:24:02;;;;;;;2.40;1.65;;;;;;;;;;5051713;28;20032;-38
2022/11/11 02:26:29;;;;;;;1.83;1.10;;;;;;;;;;5051113;28;20029;-38
2022/11/11 02:28:56;;;;;;;2.33;1.35;;;;;;;;;;5051908;28;20028;-38
2022/11/11 02:31:26;;;;;;;1.63;1.05;;;;;;;;;;5050784;28;20025;-42
2022/11/11 02:33:52;;;;;;;2.00;1.40;;;;;;;;;;5051601;28;20020;-40
2022/11/11 02:36:19;;;;;;;2.15;1.20;;;;;;;;;;5051293;28;20524;-38
2022/11/11 02:38:45;;;;;;;1.85;1.20;;;;;;;;;;5050971;28;20040;-38
2022/11/11 02:43:55;;;;;;;2.08;1.00;;;;;;;;;;5050723;28;20118;-38
2022/11/11 02:46:21;;;;;;;1.95;1.25;;;;;;;;;;5050936;28;20053;-42
2022/11/11 02:48:47;;;;;;;1.98;1.27;;;;;;;;;;5051521;28;20025;-38
2022/11/11 02:51:13;;;;;;;2.20;1.40;;;;;;;;;;5051351;28;20021;-41
2022/11/11 02:53:39;;;;;;;3.75;1.50;;;;;;;;;;5050926;28;20102;-38
2022/11/11 02:56:05;;;;;;;1.25;1.10;;;;;;;;;;5051014;28;20044;-38
2022/11/11 02:58:32;;;;;;;2.15;1.30;;;;;;;;;;5050589;28;20029;-37
2022/11/11 03:00:58;;;;;;;2.38;1.45;;;;;;;;;;5050484;28;20027;-38
2022/11/11 03:03:24;;;;;;;2.95;1.35;;;;;;;;;;5050289;28;20096;-44
2022/11/11 03:05:50;;;;;;;1.42;1.20;;;;;;;;;;5050690;28;20061;-38
2022/11/11 03:08:16;;;;;;;2.15;1.55;;;;;;;;;;5050961;28;20056;-38
2022/11/11 03:10:42;;;;;;;2.90;1.40;;;;;;;;;;5050165;28;20032;-38
2022/11/11 03:13:08;;;;;;;2.63;1.42;;;;;;;;;;5051026;28;20087;-38
2022/11/11 03:15:34;;;;;;;3.08;1.60;;;;;;;;;;5049816;28;20441;-38
2022/11/11 03:18:00;;;;;;;3.05;1.80;;;;;;;;;;5051117;28;20029;-38
2022/11/11 03:23:14;;;;;;;3.42;1.92;;;;;;;;;;5051136;28;20116;-38
2022/11/11 03:25:44;;;;;;;2.67;1.65;;;;;;;;;;5049932;28;20048;-38
2022/11/11 03:28:10;;;;;;;2.25;1.20;;;;;;;;;;5050972;28;20426;-38
2022/11/11 03:30:37;;;;;;;2.20;1.40;;;;;;;;;;5045150;28;20463;-38
2022/11/11 03:33:03;;;;;;;4.13;1.60;;;;;;;;;;5045327;28;20059;-38
2022/11/11 03:35:30;;;;;;;2.55;1.40;;;;;;;;;;5049412;28;20040;-38
2022/11/11 03:38:15;;;;;;;1.20;0.82;;;;;;;;;;5051191;28;20028;-39
2022/11/11 03:40:45;;;;;;;1.63;1.20;;;;;;;;;;5050095;28;20082;-38
2022/11/11 03:43:11;;;;;;;3.75;1.27;;;;;;;;;;5051195;28;20406;-38
2022/11/11 03:45:37;;;;;;;1.27;1.17;;;;;;;;;;5049756;28;20486;-38
2022/11/11 03:48:04;;;;;;;2.13;1.50;;;;;;;;;;5051229;28;20103;-38
2022/11/11 03:50:30;;;;;;;1.48;1.27;;;;;;;;;;5047019;28;20032;-38
2022/11/11 03:52:56;;;;;;;2.65;1.58;;;;;;;;;;5050918;28;20053;-38
2022/11/11 03:55:23;;;;;;;1.90;1.20;;;;;;;;;;5050235;28;20475;-42
2022/11/11 03:57:49;;;;;;;1.60;1.00;;;;;;;;;;5050599;28;20055;-38
2022/11/11 04:00:16;;;;;;;3.33;1.50;;;;;;;;;;5050260;28;20033;-38
2022/11/11 04:10:58;;;;;;;1.90;1.20;;;;;;;;;;5049655;28;20510;-37
2022/11/11 04:16:09;;;;;;;2.03;1.40;;;;;;;;;;5053423;28;20044;-37
2022/11/11 04:26:52;;;;;;;1.67;0.98;;;;;;;;;;5046157;28;20036;-38
2022/11/11 04:29:27;;;;;;;2.22;1.45;;;;;;;;;;5053848;28;20021;-38
2022/11/11 04:34:51;;;;;;;2.08;1.50;;;;;;;;;;5048974;28;20111;-38
2022/11/11 04:37:18;;;;;;;2.65;1.20;;;;;;;;;;5053947;28;20040;-38
2022/11/11 04:42:29;;;;;;;2.55;1.40;;;;;;;;;;5053021;28;20032;-38
2022/11/11 04:48:02;;;;;;;1.60;1.17;;;;;;;;;;5052689;28;20063;-38
2022/11/11 04:50:29;;;;;;;2.08;1.10;;;;;;;;;;5052246;28;20028;-38
2022/11/11 04:52:55;;;;;;;2.00;1.25;;;;;;;;;;5053763;28;20482;-38
2022/11/11 04:58:06;;;;;;;2.33;1.27;;;;;;;;;;5053852;28;20032;-38
2022/11/11 05:00:32;;;;;;;1.48;1.10;;;;;;;;;;5051973;28;20029;-37
2022/11/11 05:08:54;;;;;;;3.28;1.25;;;;;;;;;;5052679;28;20071;-38
2022/11/11 05:11:21;;;;;;;1.90;1.38;;;;;;;;;;5052952;28;20021;-42
2022/11/11 05:22:20;;;;;;;1.83;1.27;;;;;;;;;;5051009;28;20032;-38
2022/11/11 05:27:31;;;;;;;3.15;1.55;;;;;;;;;;5044820;28;20078;-38
2022/11/11 05:29:57;;;;;;;2.78;1.50;;;;;;;;;;5053099;28;20463;-38
2022/11/11 05:32:23;;;;;;;1.80;1.20;;;;;;;;;;5052939;28;20033;-42
2022/11/11 05:34:49;;;;;;;2.58;1.40;;;;;;;;;;5052652;28;20078;-37
2022/11/11 05:37:15;;;;;;;2.70;2.20;;;;;;;;;;5052988;28;20036;-38
2022/11/11 05:39:42;;;;;;;2.45;1.60;;;;;;;;;;5046544;28;20033;-38
2022/11/11 05:42:08;;;;;;;2.50;1.17;;;;;;;;;;5052949;28;20086;-38
2022/11/11 05:44:34;;;;;;;2.65;1.25;;;;;;;;;;5050370;28;20025;-38
2022/11/11 05:47:00;;;;;;;2.05;1.20;;;;;;;;;;5050278;28;20057;-37
2022/11/11 05:49:26;;;;;;;1.63;1.25;;;;;;;;;;5051856;28;20025;-44
2022/11/11 05:51:54;;;;;;;1.95;1.20;;;;;;;;;;5047084;28;20351;-38
2022/11/11 05:54:21;;;;;;;1.80;1.33;;;;;;;;;;5052712;28;20043;-38
2022/11/11 05:56:48;;;;;;;2.55;1.50;;;;;;;;;;5050748;28;20029;-38
2022/11/11 05:59:14;;;;;;;2.33;1.30;;;;;;;;;;5052390;28;20026;-38
2022/11/11 06:01:40;;;;;;;1.65;1.42;;;;;;;;;;5051561;28;20029;-38
2022/11/11 06:04:06;;;;;;;1.85;1.30;;;;;;;;;;5052282;28;20029;-38
2022/11/11 06:06:33;;;;;;;1.88;1.40;;;;;;;;;;5051246;28;20155;-39
2022/11/11 06:08:59;;;;;;;3.25;1.40;;;;;;;;;;5050001;28;20032;-37
2022/11/11 06:11:26;;;;;;;2.33;1.42;;;;;;;;;;5050984;28;20029;-42
2022/11/11 06:13:52;;;;;;;3.47;1.73;;;;;;;;;;5045295;28;20036;-37
2022/11/11 06:16:18;;;;;;;4.05;1.67;;;;;;;;;;5051627;28;20041;-39
2022/11/11 06:18:44;;;;;;;2.40;1.40;;;;;;;;;;5050894;28;20070;-38
2022/11/11 06:21:10;;;;;;;4.43;1.73;;;;;;;;;;5051626;28;20031;-37
2022/11/11 06:23:36;;;;;;;7.18;1.85;;;;;;;;;;5051379;28;20028;-37
2022/11/11 06:26:11;;;;;;;2.28;1.52;;;;;;;;;;5051198;28;20067;-37
2022/11/11 06:28:42;;;;;;;5.28;1.75;;;;;;;;;;5051203;28;20104;-38
2022/11/11 06:31:09;;;;;;;3.88;1.75;;;;;;;;;;5050266;28;20074;-37
2022/11/11 06:33:35;;;;;;;8.70;1.90;;;;;;;;;;5050776;28;20052;-37
2022/11/11 06:36:01;;;;;;;7.22;1.60;;;;;;;;;;5051220;28;20390;-38
2022/11/11 06:38:28;;;;;;;4.55;1.75;;;;;;;;;;5050692;28;20478;-38
2022/11/11 06:40:54;;;;;;;7.95;1.98;;;;;;;;;;5051096;28;20024;-38
2022/11/11 06:43:20;;;;;;;10.48;2.30;;;;;;;;;;5051243;28;20486;-38
2022/11/11 06:45:49;;;;;;;5.95;2.13;;;;;;;;;;5049955;28;20478;-38
2022/11/11 06:48:15;;;;;;;3.00;1.48;;;;;;;;;;5051493;28;20025;-37
2022/11/11 06:50:41;;;;;;;5.75;2.25;;;;;;;;;;5048807;28;20028;-41
2022/11/11 06:53:09;;;;;;;8.32;2.20;;;;;;;;;;5041874;28;20029;-40
2022/11/11 06:55:35;;;;;;;7.65;3.38;;;;;;;;;;5041164;28;20425;-41
2022/11/11 06:58:07;;;;;;;5.97;2.50;;;;;;;;;;5042942;28;20021;-42
2022/11/11 07:00:34;;;;;;;5.53;2.53;;;;;;;;;;5048810;28;20021;-37
2022/11/11 07:03:00;;;;;;;11.60;3.40;;;;;;;;;;5050868;28;20036;-38
2022/11/11 07:05:26;;;;;;;10.05;4.97;;;;;;;;;;5050742;28;20025;-38
2022/11/11 07:07:52;;;;;;;5.95;3.25;;;;;;;;;;5053525;28;20035;-38
2022/11/11 07:10:18;;;;;;;6.22;3.80;;;;;;;;;;5050676;28;20078;-38
2022/11/11 07:12:44;;;;;;;9.32;4.65;;;;;;;;;;5049733;28;20033;-38
2022/11/11 07:15:10;;;;;;;7.32;4.00;;;;;;;;;;5050276;28;20355;-37
2022/11/11 07:17:36;;;;;;;8.15;4.18;;;;;;;;;;5050065;28;20029;-37
2022/11/11 07:20:03;;;;;;;5.75;3.47;;;;;;;;;;5049746;28;20045;-37
2022/11/11 07:22:29;;;;;;;5.43;3.60;;;;;;;;;;5046149;28;20032;-39
2022/11/11 07:24:55;;;;;;;5.03;3.20;;;;;;;;;;5049668;28;20029;-38
2022/11/11 07:27:21;;;;;;;7.10;3.30;;;;;;;;;;5050496;28;20028;-38
2022/11/11 07:29:47;;;;;;;7.65;3.05;;;;;;;;;;5049465;28;20849;-37
2022/11/11 07:32:16;;;;;;;6.38;2.92;;;;;;;;;;5050818;28;20474;-37
2022/11/11 07:34:43;;;;;;;4.45;2.90;;;;;;;;;;5049528;28;20604;-39
2022/11/11 07:37:09;;;;;;;6.07;3.58;;;;;;;;;;5050622;28;20033;-38
2022/11/11 07:39:35;;;;;;;7.35;3.38;;;;;;;;;;5049452;28;20103;-37
2022/11/11 07:42:01;;;;;;;5.68;2.88;;;;;;;;;;5051003;28;20542;-37
2022/11/11 07:44:27;;;;;;;6.07;3.33;;;;;;;;;;5049753;28;20044;-41
2022/11/11 07:46:53;;;;;;;4.35;3.10;;;;;;;;;;5032839;28;20071;-38
2022/11/11 07:49:19;;;;;;;6.88;2.92;;;;;;;;;;5053539;28;20482;-37
2022/11/11 07:51:45;;;;;;;5.75;2.92;;;;;;;;;;5053783;28;20043;-38
2022/11/11 07:54:11;;;;;;;8.65;3.65;;;;;;;;;;5054805;28;20433;-37
2022/11/11 07:56:37;;;;;;;5.10;3.00;;;;;;;;;;5051568;28;20029;-38
2022/11/11 07:59:03;;;;;;;4.93;2.63;;;;;;;;;;5050073;28;20040;-37
2022/11/11 08:01:29;;;;;;;4.22;2.60;;;;;;;;;;5051261;28;20055;-38
2022/11/11 08:03:55;;;;;;;6.88;3.45;;;;;;;;;;5054347;28;20017;-37
2022/11/11 08:06:21;;;;;;;5.43;3.10;;;;;;;;;;5054706;28;20024;-38
2022/11/11 08:08:48;;;;;;;5.20;3.03;;;;;;;;;;5054304;28;20064;-38
2022/11/11 08:11:15;;;;;;;3.05;2.33;;;;;;;;;;5052832;28;20036;-38
2022/11/11 08:13:42;;;;;;;5.25;2.53;;;;;;;;;;5042318;28;20796;-37
2022/11/11 08:16:09;;;;;;;4.68;2.70;;;;;;;;;;5053417;28;20066;-38
2022/11/11 08:18:35;;;;;;;4.72;2.40;;;;;;;;;;5052233;28;20108;-38
2022/11/11 08:21:02;;;;;;;5.13;2.92;;;;;;;;;;5053313;28;20109;-37
2022/11/11 08:23:31;;;;;;;5.10;3.05;;;;;;;;;;5045421;28;20462;-38
2022/11/11 08:25:58;;;;;;;5.68;2.88;;;;;;;;;;5053129;28;20505;-37
2022/11/11 08:28:24;;;;;;;4.00;2.30;;;;;;;;;;5053554;28;20412;-43
2022/11/11 08:30:50;;;;;;;3.40;2.30;;;;;;;;;;5053153;28;20070;-38
2022/11/11 08:33:16;;;;;;;5.22;2.67;;;;;;;;;;5053454;28;20028;-38
2022/11/11 08:35:42;;;;;;;5.43;3.00;;;;;;;;;;5052539;28;20017;-37
2022/11/11 08:38:08;;;;;;;4.45;2.53;;;;;;;;;;5053452;28;20017;-37
2022/11/11 08:40:34;;;;;;;5.88;2.72;;;;;;;;;;5052612;28;20028;-38
2022/11/11 08:43:00;;;;;;;6.75;2.88;;;;;;;;;;5053321;28;20463;-38
2022/11/11 08:45:26;;;;;;;4.78;2.33;;;;;;;;;;5052164;28;20021;-38
2022/11/11 08:47:52;;;;;;;8.60;2.97;;;;;;;;;;5053407;28;20033;-38
2022/11/11 08:50:18;;;;;;;3.63;2.22;;;;;;;;;;5034965;28;20025;-37
2022/11/11 08:52:48;;;;;;;4.25;2.42;;;;;;;;;;5052655;28;20025;-37
2022/11/11 08:55:14;;;;;;;5.20;3.13;;;;;;;;;;5052372;28;20445;-40
2022/11/11 08:57:40;;;;;;;4.45;2.80;;;;;;;;;;5047344;28;20065;-38
2022/11/11 09:00:07;;;;;;;8.00;2.50;;;;;;;;;;5047591;28;20112;-38
2022/11/11 09:02:33;;;;;;;7.32;2.28;;;;;;;;;;5049472;28;20032;-38
2022/11/11 09:04:59;;;;;;;4.60;2.42;;;;;;;;;;5050319;28;20025;-38
2022/11/11 09:07:25;;;;;;;3.72;2.42;;;;;;;;;;5049890;28;20032;-42
2022/11/11 09:09:51;;;;;;;4.15;2.67;;;;;;;;;;5052584;28;20095;-38
2022/11/11 09:12:17;;;;;;;5.32;2.83;;;;;;;;;;5053156;28;20020;-38
2022/11/11 09:14:43;;;;;;;6.95;3.35;;;;;;;;;;5042620;28;20052;-38
2022/11/11 09:17:09;;;;;;;4.35;2.47;;;;;;;;;;5051773;28;20524;-38
2022/11/11 09:19:35;;;;;;;6.53;2.50;;;;;;;;;;5049128;28;20056;-39
2022/11/11 09:22:01;;;;;;;4.53;2.67;;;;;;;;;;5052357;28;20109;-38
2022/11/11 09:24:27;;;;;;;5.18;2.85;;;;;;;;;;5048635;28;20051;-39
2022/11/11 09:26:53;;;;;;;5.88;2.83;;;;;;;;;;5052114;28;20021;-37
2022/11/11 09:29:19;;;;;;;4.20;2.65;;;;;;;;;;5043029;28;20090;-38
2022/11/11 09:31:46;;;;;;;15.65;4.00;;;;;;;;;;5049282;28;20525;-38
2022/11/11 09:34:12;;;;;;;8.68;2.65;;;;;;;;;;5049622;28;20032;-38
2022/11/11 09:36:38;;;;;;;9.38;3.60;;;;;;;;;;5052891;28;20052;-38
2022/11/11 09:39:05;;;;;;;11.55;4.43;;;;;;;;;;5050979;28;20128;-40
2022/11/11 09:41:50;;;;;;;6.97;3.17;;;;;;;;;;5050888;28;20115;-39
2022/11/11 09:44:22;;;;;;;3.97;2.47;;;;;;;;;;5052609;28;20485;-38
2022/11/11 09:46:47;;;;;;;;;;;;;;;;;;5041033;28;20036;-37
2022/11/11 09:49:39;;;;;;;6.40;2.20;;;;;;;;;;5050388;28;19909;-39
2022/11/11 09:52:09;;;;;;;4.20;2.25;;;;;;;;;;5052282;28;20025;-41
2022/11/11 09:54:35;;;;;;;5.07;2.75;;;;;;;;;;5048582;28;20032;-38
2022/11/11 09:57:03;;;;;;;8.30;2.88;;;;;;;;;;5053028;28;20459;-38
2022/11/11 09:59:45;;;;;;;7.00;3.45;;;;;;;;;;5051218;28;20029;-38
2022/11/11 10:02:18;;;;;;;5.40;2.58;;;;;;;;;;5050784;28;20096;-39
2022/11/11 10:04:59;;;;;;;10.10;3.28;;;;;;;;;;5044695;28;20032;-38
2022/11/11 10:07:36;;;;;;;4.20;2.70;;;;;;;;;;5051440;28;20466;-43
2022/11/11 10:10:09;;;;;;;7.68;2.83;;;;;;;;;;5051500;28;20489;-38
2022/11/11 10:12:38;;;;;;;5.15;2.33;;;;;;;;;;5051035;28;20074;-38
2022/11/11 10:15:05;;;;;;;7.10;2.70;;;;;;;;;;5051681;28;20083;-38
2022/11/11 10:17:30;;;;;;;7.47;2.35;;;;;;;;;;5050969;28;20091;-39
2022/11/11 10:20:00;;;;;;;6.47;2.15;;;;;;;;;;5051167;28;20088;-38
2022/11/11 10:22:36;;;;;;;4.30;2.28;;;;;;;;;;5050847;28;20029;-39
2022/11/11 10:25:02;;;;;;;3.40;2.15;;;;;;;;;;5025316;28;20352;-38
2022/11/11 10:27:28;;;;;;;4.88;2.58;;;;;;;;;;5051282;28;20151;-38
2022/11/11 10:29:54;;;;;;;4.68;2.20;;;;;;;;;;5050922;28;20025;-38
2022/11/11 10:32:23;;;;;;;6.35;2.65;;;;;;;;;;5051489;28;20033;-38
2022/11/11 10:34:49;;;;;;;4.38;2.17;;;;;;;;;;5050809;28;20040;-39
2022/11/11 10:37:21;;;;;;;3.88;2.90;;;;;;;;;;5050831;28;20037;-38
2022/11/11 10:40:02;;;;;;;4.20;2.22;;;;;;;;;;5051094;28;20198;-38
2022/11/11 10:42:28;;;;;;;6.63;2.00;;;;;;;;;;5048622;28;20029;-38
2022/11/11 10:44:58;;;;;;;3.65;1.90;;;;;;;;;;5032889;28;20025;-39
2022/11/11 10:47:30;;;;;;;2.83;1.85;;;;;;;;;;5050955;28;20108;-42
2022/11/11 10:49:56;;;;;;;;;;;;;;;;;;5051095;28;20044;-38
2022/11/11 10:52:23;;;;;;;5.45;2.28;;;;;;;;;;5050407;28;19909;-47
2022/11/11 10:54:53;;;;;;;5.75;2.55;;;;;;;;;;5043721;28;20047;-39
2022/11/11 10:57:26;;;;;;;7.03;2.38;;;;;;;;;;5044603;28;20659;-39
2022/11/11 10:59:59;;;;;;;9.10;2.60;;;;;;;;;;5019625;28;20202;-39
2022/11/11 11:02:28;;;;;;;4.07;2.53;;;;;;;;;;5045578;28;20033;-40
2022/11/11 11:05:03;;;;;;;5.78;2.05;;;;;;;;;;5036339;28;20478;-42
2022/11/11 11:07:33;;;;;;;4.65;2.60;;;;;;;;;;5040900;28;20151;-39
2022/11/11 11:10:05;;;;;;;6.70;2.58;;;;;;;;;;5046082;28;20032;-38
2022/11/11 11:12:39;;;;;;;7.63;2.10;;;;;;;;;;5041208;28;20021;-38
2022/11/11 11:15:08;;;;;;;5.93;2.70;;;;;;;;;;5047697;28;20021;-38
2022/11/11 11:17:40;;;;;;;6.45;2.35;;;;;;;;;;5037888;28;20159;-40
2022/11/11 11:20:14;;;;;;;6.72;2.80;;;;;;;;;;5049405;28;20203;-38
2022/11/11 11:22:44;;;;;;;4.30;2.70;;;;;;;;;;5048042;28;20048;-38
2022/11/11 11:25:11;;;;;;;4.38;2.33;;;;;;;;;;5047835;28;20101;-38
2022/11/11 11:27:37;;;;;;;6.20;2.58;;;;;;;;;;5040199;28;20044;-38
2022/11/11 11:30:11;;;;;;;5.82;2.55;;;;;;;;;;5045786;28;20055;-39
2022/11/11 11:32:37;;;;;;;6.20;2.08;;;;;;;;;;5049447;28;20383;-38
2022/11/11 11:35:03;;;;;;;6.72;2.13;;;;;;;;;;5049943;28;20466;-38
2022/11/11 11:37:29;;;;;;;7.32;1.92;;;;;;;;;;5049467;28;20037;-42
2022/11/11 11:39:59;;;;;;;3.47;1.90;;;;;;;;;;5049728;28;20029;-38
2022/11/11 11:42:30;;;;;;;5.03;2.05;;;;;;;;;;5042602;28;20045;-42
2022/11/11 11:44:56;;;;;;;5.35;1.98;;;;;;;;;;5043550;28;20498;-38
2022/11/11 11:47:35;;;;;;;4.55;2.00;;;;;;;;;;5024954;28;20037;-43
2022/11/11 11:50:07;;;;;;;3.95;2.10;;;;;;;;;;5046320;28;20187;-38
2022/11/11 11:52:53;;;;;;;3.60;2.17;;;;;;;;;;5047295;28;20047;-38
2022/11/11 11:55:22;;;;;;;5.75;2.38;;;;;;;;;;5043394;28;20043;-39
2022/11/11 11:57:48;;;;;;;4.45;2.30;;;;;;;;;;5031081;28;20045;-42
2022/11/11 12:00:21;;;;;;;3.75;2.08;;;;;;;;;;5033015;28;20034;-42
2022/11/11 12:02:47;;;;;;;5.82;2.42;;;;;;;;;;5040758;28;20029;-38
2022/11/11 12:05:16;;;;;;;5.85;2.45;;;;;;;;;;5050316;28;20095;-38
2022/11/11 12:07:54;;;;;;;6.57;2.50;;;;;;;;;;5049720;28;20025;-38
2022/11/11 12:10:36;;;;;;;6.53;2.33;;;;;;;;;;5050639;28;20082;-38
2022/11/11 12:13:12;;;;;;;4.60;2.17;;;;;;;;;;5050710;28;20100;-38
2022/11/11 12:15:38;;;;;;;12.45;2.70;;;;;;;;;;5049152;28;20276;-38
2022/11/11 12:18:22;;;;;;;4.88;3.30;;;;;;;;;;5049262;28;20044;-38
2022/11/11 12:20:57;;;;;;;4.05;2.03;;;;;;;;;;5050633;28;20053;-38
2022/11/11 12:23:41;;;;;;;7.32;2.55;;;;;;;;;;5048785;28;20033;-42
2022/11/11 12:26:07;;;;;;;7.00;2.72;;;;;;;;;;5038806;28;20045;-37
2022/11/11 12:28:49;;;;;;;7.40;2.28;;;;;;;;;;5046479;28;20037;-37
2022/11/11 12:31:14;;;;;;;7.60;2.20;;;;;;;;;;5042548;28;20063;-38
2022/11/11 12:33:46;;;;;;;7.53;2.65;;;;;;;;;;5047746;28;20060;-38
2022/11/11 12:36:12;;;;;;;;;;;;;;;;;;5052284;28;20037;-37
2022/11/11 12:38:57;;;;;;;6.13;2.45;;;;;;;;;;5044279;28;19988;-37
2022/11/11 12:41:27;;;;;;;5.22;2.47;;;;;;;;;;5046566;28;20025;-44
2022/11/11 12:43:59;;;;;;;5.82;2.55;;;;;;;;;;5047773;28;20033;-37
2022/11/11 12:46:40;;;;;;;7.93;2.22;;;;;;;;;;5050302;28;20083;-43
2022/11/11 12:49:21;;;;;;;9.23;2.92;;;;;;;;;;5051381;28;20037;-37
2022/11/11 12:51:53;;;;;;;4.70;2.13;;;;;;;;;;5033539;28;20390;-38
2022/11/11 12:54:29;;;;;;;3.95;2.17;;;;;;;;;;5050297;28;20039;-39
2022/11/11 12:57:02;;;;;;;3.95;2.28;;;;;;;;;;5045734;28;20501;-37
2022/11/11 12:59:53;;;;;;;4.45;2.08;;;;;;;;;;5047939;28;20029;-39
2022/11/11 13:02:34;;;;;;;5.68;2.65;;;;;;;;;;5046120;28;20371;-37
2022/11/11 13:05:09;;;;;;;7.82;2.25;;;;;;;;;;5047421;28;20090;-37
2022/11/11 13:07:35;;;;;;;5.20;2.15;;;;;;;;;;5050603;28;20037;-39
2022/11/11 13:10:13;;;;;;;4.07;2.13;;;;;;;;;;5046396;28;20378;-37
2022/11/11 13:12:48;;;;;;;6.95;2.47;;;;;;;;;;5036478;28;20075;-37
2022/11/11 13:15:22;;;;;;;9.90;3.10;;;;;;;;;;5046262;28;20044;-37
2022/11/11 13:17:48;;;;;;;4.47;1.80;;;;;;;;;;5050035;28;20199;-37
2022/11/11 13:20:32;;;;;;;3.85;2.10;;;;;;;;;;5035297;28;20537;-38
2022/11/11 13:22:58;;;;;;;4.38;2.10;;;;;;;;;;5041072;28;20032;-37
2022/11/11 13:25:29;;;;;;;5.43;2.25;;;;;;;;;;5039473;28;20052;-45
2022/11/11 13:28:05;;;;;;;4.75;2.17;;;;;;;;;;5034010;28;20033;-37
2022/11/11 13:30:49;;;;;;;3.13;1.67;;;;;;;;;;5034440;28;20021;-37
2022/11/11 13:33:17;;;;;;;4.50;1.90;;;;;;;;;;5035584;28;20032;-37
2022/11/11 13:35:52;;;;;;;3.58;1.88;;;;;;;;;;5031648;28;20529;-37
2022/11/11 13:38:35;;;;;;;3.65;2.22;;;;;;;;;;5031547;28;20064;-38
2022/11/11 13:41:04;;;;;;;3.75;1.95;;;;;;;;;;5041668;28;20029;-38
2022/11/11 13:43:44;;;;;;;4.15;2.00;;;;;;;;;;5039635;28;20065;-37
2022/11/11 13:46:28;;;;;;;4.32;2.55;;;;;;;;;;5039994;28;20037;-37
2022/11/11 13:48:55;;;;;;;3.15;1.60;;;;;;;;;;5034718;28;20107;-37
2022/11/11 13:51:40;;;;;;;3.28;2.10;;;;;;;;;;5035851;28;20028;-41
2022/11/11 13:54:19;;;;;;;5.18;2.00;;;;;;;;;;5036151;28;20030;-37
2022/11/11 13:56:46;;;;;;;4.18;1.98;;;;;;;;;;5031622;28;20633;-38
2022/11/11 13:59:20;;;;;;;2.85;1.55;;;;;;;;;;5026937;28;20486;-38
2022/11/11 14:01:46;;;;;;;3.05;1.95;;;;;;;;;;5035360;28;20033;-37
2022/11/11 14:04:12;;;;;;;4.50;2.33;;;;;;;;;;5032762;28;20478;-37
2022/11/11 14:06:47;;;;;;;5.13;1.58;;;;;;;;;;5027466;28;20032;-37
2022/11/11 14:09:33;;;;;;;2.63;2.17;;;;;;;;;;5039422;28;20025;-37
2022/11/11 14:12:18;;;;;;;2.25;1.63;;;;;;;;;;5014563;28;20033;-40
2022/11/11 14:14:46;;;;;;;3.83;1.92;;;;;;;;;;5027730;28;20040;-37
2022/11/11 14:17:15;;;;;;;2.85;1.45;;;;;;;;;;5028503;28;20030;-37
2022/11/11 14:19:41;;;;;;;4.30;1.63;;;;;;;;;;5035698;28;20077;-37
2022/11/11 14:22:22;;;;;;;2.67;1.70;;;;;;;;;;5045834;28;20449;-37
2022/11/11 14:24:48;;;;;;;3.42;1.98;;;;;;;;;;5048008;28;20032;-38
2022/11/11 14:27:15;;;;;;;2.67;1.52;;;;;;;;;;5044370;28;20415;-37
2022/11/11 14:29:48;;;;;;;5.60;1.85;;;;;;;;;;5050589;28;20036;-37
2022/11/11 14:32:13;;;;;;;2.70;1.42;;;;;;;;;;5050137;28;20521;-37
2022/11/11 14:34:58;;;;;;;3.88;1.92;;;;;;;;;;5050338;28;20061;-37
2022/11/11 14:37:27;;;;;;;2.42;1.65;;;;;;;;;;5051437;28;20037;-42
2022/11/11 14:39:54;;;;;;;2.53;1.50;;;;;;;;;;5045152;28;20033;-37
2022/11/11 14:42:35;;;;;;;4.90;2.55;;;;;;;;;;5051757;28;20025;-37
2022/11/11 14:45:02;;;;;;;3.27;2.10;;;;;;;;;;5051025;28;20025;-37
2022/11/11 14:47:36;;;;;;;3.05;2.08;;;;;;;;;;5050646;28;20025;-37
2022/11/11 14:50:03;;;;;;;4.35;1.90;;;;;;;;;;5033163;28;20068;-37
2022/11/11 14:52:37;;;;;;;2.78;1.73;;;;;;;;;;5049806;28;20023;-37
2022/11/11 14:55:09;;;;;;;2.25;1.63;;;;;;;;;;5050202;28;20029;-37
2022/11/11 14:57:35;;;;;;;;;;;;;;;;;;5044438;28;20486;-38
2022/11/11 15:00:02;;;;;;;2.53;1.48;;;;;;;;;;5040553;28;19908;-38
2022/11/11 15:02:30;;;;;;;4.88;2.47;;;;;;;;;;5044805;28;20021;-37
2022/11/11 15:05:00;;;;;;;3.28;1.55;;;;;;;;;;5050457;28;20025;-41
2022/11/11 15:07:26;;;;;;;3.97;2.08;;;;;;;;;;5047338;28;20075;-41
2022/11/11 15:10:00;;;;;;;2.80;1.40;;;;;;;;;;5050760;28;20017;-39
2022/11/11 15:12:32;;;;;;;2.75;1.95;;;;;;;;;;5047622;28;20025;-44
2022/11/11 15:15:11;;;;;;;3.95;1.60;;;;;;;;;;5050313;28;20024;-39
2022/11/11 15:17:42;;;;;;;4.93;1.60;;;;;;;;;;5042685;28;20049;-39
2022/11/11 15:20:11;;;;;;;2.17;1.50;;;;;;;;;;5034854;28;20529;-39
2022/11/11 15:22:55;;;;;;;2.80;1.50;;;;;;;;;;5034013;28;20036;-39
2022/11/11 15:25:39;;;;;;;3.95;1.58;;;;;;;;;;5033617;28;20024;-38
2022/11/11 15:28:11;;;;;;;2.35;1.20;;;;;;;;;;5036654;28;20116;-39
2022/11/11 15:30:47;;;;;;;3.88;1.88;;;;;;;;;;5034149;28;20075;-39
2022/11/11 15:33:13;;;;;;;3.45;1.73;;;;;;;;;;5034698;28;20034;-43
2022/11/11 15:35:59;;;;;;;5.78;1.95;;;;;;;;;;5029086;28;20030;-38
2022/11/11 15:38:25;;;;;;;4.82;1.85;;;;;;;;;;4979186;28;20077;-42
2022/11/11 15:40:59;;;;;;;2.90;1.73;;;;;;;;;;5033013;28;20033;-39
2022/11/11 15:43:32;;;;;;;3.40;1.77;;;;;;;;;;5033458;28;20025;-45
2022/11/11 15:46:02;;;;;;;2.65;1.80;;;;;;;;;;5036346;28;20029;-39
2022/11/11 15:48:32;;;;;;;3.88;1.73;;;;;;;;;;5037672;28;20406;-39
2022/11/11 15:50:58;;;;;;;4.00;1.98;;;;;;;;;;5041017;28;20079;-39
2022/11/11 15:53:25;;;;;;;6.72;2.42;;;;;;;;;;5031471;28;20026;-43
2022/11/11 15:55:52;;;;;;;6.53;3.08;;;;;;;;;;5032505;28;20025;-38
2022/11/11 15:58:26;;;;;;;4.25;1.77;;;;;;;;;;5034084;28;20034;-38
2022/11/11 16:00:53;;;;;;;9.48;2.10;;;;;;;;;;5035207;28;20025;-39
2022/11/11 16:03:25;;;;;;;5.82;2.00;;;;;;;;;;5032207;28;20025;-39
2022/11/11 16:05:51;;;;;;;5.03;1.98;;;;;;;;;;5031987;28;20065;-38
2022/11/11 16:08:21;;;;;;;6.97;2.00;;;;;;;;;;5033550;28;20057;-39
2022/11/11 16:10:53;;;;;;;4.30;2.03;;;;;;;;;;5040476;28;20029;-39